sensor_id;sensor_type;location;lat;lon;timestamp;pressure;altitude;pressure_sealevel;temperature;humidity
77517;BME280;66628;53.946;27.634;2023-02-15T00:00:17;100109.906250;;;18.280001;23.775391
77517;BME280;66628;53.946;27.634;2023-02-15T00:01:16;100107.640625;;;18.290001;23.886719
77517;BME280;66628;53.946;27.634;2023-02-15T00:02:16;100100.218750;;;18.250000;23.817383
77517;BME280;66628;53.946;27.634;2023-02-15T00:03:16;100101.531250;;;18.230000;23.682617
77517;BME280;66628;53.946;27.634;2023-02-15T00:04:17;100100.062500;;;18.209999;23.792969
77517;BME280;66628;53.946;27.634;2023-02-15T00:05:16;100101.539062;;;18.219999;23.726562
77517;BME280;66628;53.946;27.634;2023-02-15T00:06:16;100106.937500;;;18.219999;23.838867
77517;BME280;66628;53.946;27.634;2023-02-15T00:07:17;100105.015625;;;18.230000;23.716797
77517;BME280;66628;53.946;27.634;2023-02-15T00:08:16;100105.406250;;;18.209999;23.894531
77517;BME280;66628;53.946;27.634;2023-02-15T00:09:16;100100.914062;;;18.170000;23.825195
77517;BME280;66628;53.946;27.634;2023-02-15T00:10:16;100104.031250;;;18.160000;23.891602
77517;BME280;66628;53.946;27.634;2023-02-15T00:11:17;100103.812500;;;18.100000;23.776367
77517;BME280;66628;53.946;27.634;2023-02-15T00:12:16;100105.476562;;;18.100000;23.899414
77517;BME280;66628;53.946;27.634;2023-02-15T00:13:16;100107.234375;;;18.120001;23.844727
77517;BME280;66628;53.946;27.634;2023-02-15T00:14:20;100106.195312;;;18.120001;23.844727
77517;BME280;66628;53.946;27.634;2023-02-15T00:15:16;100105.687500;;;18.080000;23.708008
77517;BME280;66628;53.946;27.634;2023-02-15T00:16:16;100105.757812;;;18.020000;23.716797
77517;BME280;66628;53.946;27.634;2023-02-15T00:17:16;100100.468750;;;18.020000;23.694336
77517;BME280;66628;53.946;27.634;2023-02-15T00:18:16;100106.250000;;;18.290001;24.412109
77517;BME280;66628;53.946;27.634;2023-02-15T00:19:17;100108.390625;;;18.500000;24.200195
77517;BME280;66628;53.946;27.634;2023-02-15T00:20:16;100110.218750;;;18.680000;24.255859
77517;BME280;66628;53.946;27.634;2023-02-15T00:21:16;100112.070312;;;18.830000;24.262695
77517;BME280;66628;53.946;27.634;2023-02-15T00:22:16;100115.601562;;;18.950001;24.314453
77517;BME280;66628;53.946;27.634;2023-02-15T00:23:16;100115.140625;;;19.059999;24.164062
77517;BME280;66628;53.946;27.634;2023-02-15T00:24:17;100117.242188;;;19.180000;24.080078
77517;BME280;66628;53.946;27.634;2023-02-15T00:25:16;100121.328125;;;19.280001;24.153320
77517;BME280;66628;53.946;27.634;2023-02-15T00:26:16;100121.390625;;;19.379999;24.181641
77517;BME280;66628;53.946;27.634;2023-02-15T00:27:16;100125.703125;;;19.450001;24.454102
77517;BME280;66628;53.946;27.634;2023-02-15T00:28:16;100125.781250;;;19.530001;24.402344
77517;BME280;66628;53.946;27.634;2023-02-15T00:29:17;100127.609375;;;19.600000;24.182617
77517;BME280;66628;53.946;27.634;2023-02-15T00:30:16;100121.640625;;;19.650000;24.050781
77517;BME280;66628;53.946;27.634;2023-02-15T00:31:19;100122.992188;;;19.700001;24.266602
77517;BME280;66628;53.946;27.634;2023-02-15T00:32:16;100123.093750;;;19.750000;24.078125
77517;BME280;66628;53.946;27.634;2023-02-15T00:33:19;100123.562500;;;19.799999;24.081055
77517;BME280;66628;53.946;27.634;2023-02-15T00:34:21;100125.078125;;;19.840000;24.048828
77517;BME280;66628;53.946;27.634;2023-02-15T00:35:16;100127.484375;;;19.889999;23.997070
77517;BME280;66628;53.946;27.634;2023-02-15T00:36:16;100124.296875;;;19.930000;23.864258
77517;BME280;66628;53.946;27.634;2023-02-15T00:37:16;100125.601562;;;19.969999;23.888672
77517;BME280;66628;53.946;27.634;2023-02-15T00:38:16;100125.421875;;;20.000000;23.946289
77517;BME280;66628;53.946;27.634;2023-02-15T00:39:16;100128.703125;;;20.040001;23.870117
77517;BME280;66628;53.946;27.634;2023-02-15T00:40:16;100126.671875;;;20.070000;23.904297
77517;BME280;66628;53.946;27.634;2023-02-15T00:41:16;100118.562500;;;20.100000;23.805664
77517;BME280;66628;53.946;27.634;2023-02-15T00:42:16;100121.070312;;;20.120001;23.851562
77517;BME280;66628;53.946;27.634;2023-02-15T00:43:16;100123.843750;;;20.139999;23.919922
77517;BME280;66628;53.946;27.634;2023-02-15T00:44:16;100123.953125;;;20.160000;23.932617
77517;BME280;66628;53.946;27.634;2023-02-15T00:45:16;100124.781250;;;20.190001;23.989258
77517;BME280;66628;53.946;27.634;2023-02-15T00:46:16;100126.679688;;;20.209999;23.856445
77517;BME280;66628;53.946;27.634;2023-02-15T00:47:16;100126.445312;;;20.230000;23.935547
77517;BME280;66628;53.946;27.634;2023-02-15T00:48:16;100125.906250;;;20.250000;23.981445
77517;BME280;66628;53.946;27.634;2023-02-15T00:49:16;100125.687500;;;20.260000;23.971680
77517;BME280;66628;53.946;27.634;2023-02-15T00:50:16;100125.101562;;;20.280001;24.050781
77517;BME280;66628;53.946;27.634;2023-02-15T00:51:16;100127.437500;;;20.299999;23.961914
77517;BME280;66628;53.946;27.634;2023-02-15T00:52:16;100128.734375;;;20.320000;23.997070
77517;BME280;66628;53.946;27.634;2023-02-15T00:53:16;100132.093750;;;20.330000;23.953125
77517;BME280;66628;53.946;27.634;2023-02-15T00:54:16;100138.406250;;;20.350000;24.009766
77517;BME280;66628;53.946;27.634;2023-02-15T00:55:16;100143.546875;;;20.360001;23.999023
77517;BME280;66628;53.946;27.634;2023-02-15T00:56:16;100141.578125;;;20.379999;24.044922
77517;BME280;66628;53.946;27.634;2023-02-15T00:57:16;100140.593750;;;20.400000;24.191406
77517;BME280;66628;53.946;27.634;2023-02-15T00:58:16;100142.390625;;;20.410000;24.249023
77517;BME280;66628;53.946;27.634;2023-02-15T00:59:16;100142.750000;;;20.430000;24.306641
77517;BME280;66628;53.946;27.634;2023-02-15T01:00:16;100142.375000;;;20.440001;24.206055
77517;BME280;66628;53.946;27.634;2023-02-15T01:01:17;100142.156250;;;20.459999;24.207031
77517;BME280;66628;53.946;27.634;2023-02-15T01:02:16;100143.664062;;;20.459999;24.117188
77517;BME280;66628;53.946;27.634;2023-02-15T01:03:17;100142.046875;;;20.469999;23.994141
77517;BME280;66628;53.946;27.634;2023-02-15T01:04:16;100139.312500;;;20.469999;24.083008
77517;BME280;66628;53.946;27.634;2023-02-15T01:05:16;100138.671875;;;20.469999;24.039062
77517;BME280;66628;53.946;27.634;2023-02-15T01:06:16;100142.281250;;;20.469999;24.061523
77517;BME280;66628;53.946;27.634;2023-02-15T01:07:16;100142.812500;;;20.469999;24.251953
77517;BME280;66628;53.946;27.634;2023-02-15T01:08:16;100141.406250;;;20.490000;24.163086
77517;BME280;66628;53.946;27.634;2023-02-15T01:09:16;100139.296875;;;20.510000;24.096680
77517;BME280;66628;53.946;27.634;2023-02-15T01:10:16;100145.359375;;;20.530001;24.031250
77517;BME280;66628;53.946;27.634;2023-02-15T01:11:18;100143.687500;;;20.530001;24.121094
77517;BME280;66628;53.946;27.634;2023-02-15T01:12:16;100141.875000;;;20.540001;24.064453
77517;BME280;66628;53.946;27.634;2023-02-15T01:13:16;100142.093750;;;20.549999;24.077148
77517;BME280;66628;53.946;27.634;2023-02-15T01:14:16;100138.898438;;;20.559999;24.156250
77517;BME280;66628;53.946;27.634;2023-02-15T01:15:16;100141.015625;;;20.570000;24.347656
77517;BME280;66628;53.946;27.634;2023-02-15T01:16:17;100139.546875;;;20.580000;24.606445
77517;BME280;66628;53.946;27.634;2023-02-15T01:17:16;100139.648438;;;20.590000;24.674805
77517;BME280;66628;53.946;27.634;2023-02-15T01:18:16;100141.296875;;;20.600000;24.776367
77517;BME280;66628;53.946;27.634;2023-02-15T01:19:16;100138.140625;;;20.610001;24.776367
77517;BME280;66628;53.946;27.634;2023-02-15T01:20:34;100142.000000;;;20.620001;24.766602
77517;BME280;66628;53.946;27.634;2023-02-15T01:21:17;100141.640625;;;20.629999;24.654297
77517;BME280;66628;53.946;27.634;2023-02-15T01:22:17;100140.406250;;;20.639999;24.586914
77517;BME280;66628;53.946;27.634;2023-02-15T01:23:16;100139.609375;;;20.639999;24.688477
77517;BME280;66628;53.946;27.634;2023-02-15T01:24:16;100140.468750;;;20.660000;24.846680
77517;BME280;66628;53.946;27.634;2023-02-15T01:25:17;100143.226562;;;20.660000;24.936523
77517;BME280;66628;53.946;27.634;2023-02-15T01:26:16;100142.156250;;;20.680000;25.015625
77517;BME280;66628;53.946;27.634;2023-02-15T01:27:16;100139.375000;;;20.690001;24.960938
77517;BME280;66628;53.946;27.634;2023-02-15T01:28:16;100138.421875;;;20.700001;25.017578
77517;BME280;66628;53.946;27.634;2023-02-15T01:29:16;100140.656250;;;20.709999;24.984375
77517;BME280;66628;53.946;27.634;2023-02-15T01:30:16;100141.406250;;;20.719999;24.973633
77517;BME280;66628;53.946;27.634;2023-02-15T01:31:17;100137.140625;;;20.719999;24.906250
77517;BME280;66628;53.946;27.634;2023-02-15T01:32:16;100139.671875;;;20.730000;24.828125
77517;BME280;66628;53.946;27.634;2023-02-15T01:33:16;100142.343750;;;20.730000;24.952148
77517;BME280;66628;53.946;27.634;2023-02-15T01:34:16;100141.171875;;;20.730000;24.986328
77517;BME280;66628;53.946;27.634;2023-02-15T01:35:16;100141.812500;;;20.740000;24.974609
77517;BME280;66628;53.946;27.634;2023-02-15T01:36:16;100143.171875;;;20.750000;24.963867
77517;BME280;66628;53.946;27.634;2023-02-15T01:37:16;100142.171875;;;20.750000;24.986328
77517;BME280;66628;53.946;27.634;2023-02-15T01:38:16;100144.734375;;;20.750000;24.964844
77517;BME280;66628;53.946;27.634;2023-02-15T01:39:16;100145.789062;;;20.750000;24.964844
77517;BME280;66628;53.946;27.634;2023-02-15T01:40:19;100146.234375;;;20.770000;25.043945
77517;BME280;66628;53.946;27.634;2023-02-15T01:41:16;100145.500000;;;20.770000;25.123047
77517;BME280;66628;53.946;27.634;2023-02-15T01:43:16;100145.593750;;;20.790001;25.157227
77517;BME280;66628;53.946;27.634;2023-02-15T01:45:21;100150.171875;;;20.799999;25.089844
77517;BME280;66628;53.946;27.634;2023-02-15T01:46:17;100151.320312;;;20.809999;25.159180
77517;BME280;66628;53.946;27.634;2023-02-15T01:47:21;100151.968750;;;20.809999;25.113281
77517;BME280;66628;53.946;27.634;2023-02-15T01:48:20;100151.437500;;;20.809999;25.169922
77517;BME280;66628;53.946;27.634;2023-02-15T01:49:17;100148.703125;;;20.820000;25.170898
77517;BME280;66628;53.946;27.634;2023-02-15T01:51:17;100154.773438;;;20.840000;25.329102
77517;BME280;66628;53.946;27.634;2023-02-15T01:52:16;100156.164062;;;20.850000;25.161133
77517;BME280;66628;53.946;27.634;2023-02-15T01:53:18;100158.281250;;;20.840000;25.047852
77517;BME280;66628;53.946;27.634;2023-02-15T01:55:16;100158.046875;;;20.860001;25.048828
77517;BME280;66628;53.946;27.634;2023-02-15T01:56:17;100158.390625;;;20.870001;25.003906
77517;BME280;66628;53.946;27.634;2023-02-15T01:57:18;100160.898438;;;20.870001;25.027344
77517;BME280;66628;53.946;27.634;2023-02-15T01:58:16;100161.593750;;;20.870001;25.094727
77517;BME280;66628;53.946;27.634;2023-02-15T01:59:19;100161.312500;;;20.879999;25.016602
77517;BME280;66628;53.946;27.634;2023-02-15T02:00:16;100160.734375;;;20.879999;25.049805
77517;BME280;66628;53.946;27.634;2023-02-15T02:01:16;100163.351562;;;20.889999;25.039062
77517;BME280;66628;53.946;27.634;2023-02-15T02:02:16;100163.640625;;;20.889999;25.106445
77517;BME280;66628;53.946;27.634;2023-02-15T02:03:20;100162.781250;;;20.900000;25.164062
77517;BME280;66628;53.946;27.634;2023-02-15T02:05:16;100164.296875;;;20.920000;25.457031
77517;BME280;66628;53.946;27.634;2023-02-15T02:06:16;100163.343750;;;20.940001;25.480469
77517;BME280;66628;53.946;27.634;2023-02-15T02:07:17;100161.312500;;;20.950001;25.537109
77517;BME280;66628;53.946;27.634;2023-02-15T02:08:16;100159.718750;;;20.959999;25.492188
77517;BME280;66628;53.946;27.634;2023-02-15T02:09:16;100159.609375;;;20.959999;25.514648
77517;BME280;66628;53.946;27.634;2023-02-15T02:10:17;100156.679688;;;20.959999;25.672852
77517;BME280;66628;53.946;27.634;2023-02-15T02:11:16;100156.398438;;;20.969999;25.606445
77517;BME280;66628;53.946;27.634;2023-02-15T02:12:16;100155.296875;;;20.969999;25.493164
77517;BME280;66628;53.946;27.634;2023-02-15T02:13:16;100155.640625;;;20.969999;25.572266
77517;BME280;66628;53.946;27.634;2023-02-15T02:14:16;100162.640625;;;20.980000;25.550781
77517;BME280;66628;53.946;27.634;2023-02-15T02:15:16;100159.546875;;;20.969999;25.561523
77517;BME280;66628;53.946;27.634;2023-02-15T02:21:27;100163.515625;;;21.000000;25.629883
77517;BME280;66628;53.946;27.634;2023-02-15T02:23:19;100167.484375;;;21.000000;25.562500
77517;BME280;66628;53.946;27.634;2023-02-15T02:24:23;100169.757812;;;21.000000;25.652344
77517;BME280;66628;53.946;27.634;2023-02-15T02:25:21;100163.859375;;;21.000000;25.619141
77517;BME280;66628;53.946;27.634;2023-02-15T02:32:22;100160.953125;;;21.010000;25.541016
77517;BME280;66628;53.946;27.634;2023-02-15T02:33:28;100161.000000;;;21.020000;25.451172
77517;BME280;66628;53.946;27.634;2023-02-15T02:34:18;100163.632812;;;21.020000;25.585938
77517;BME280;66628;53.946;27.634;2023-02-15T02:38:22;100167.070312;;;21.020000;25.519531
77517;BME280;66628;53.946;27.634;2023-02-15T02:40:38;100168.578125;;;21.030001;25.597656
77517;BME280;66628;53.946;27.634;2023-02-15T02:44:17;100182.640625;;;21.040001;25.654297
77517;BME280;66628;53.946;27.634;2023-02-15T02:45:20;100180.296875;;;21.040001;25.576172
77517;BME280;66628;53.946;27.634;2023-02-15T02:47:21;100174.296875;;;21.049999;25.622070
77517;BME280;66628;53.946;27.634;2023-02-15T02:48:20;100175.093750;;;21.049999;25.587891
77517;BME280;66628;53.946;27.634;2023-02-15T02:49:16;100178.031250;;;21.049999;25.678711
77517;BME280;66628;53.946;27.634;2023-02-15T02:50:18;100177.265625;;;21.059999;25.644531
77517;BME280;66628;53.946;27.634;2023-02-15T02:51:16;100177.156250;;;21.049999;25.644531
77517;BME280;66628;53.946;27.634;2023-02-15T02:53:16;100177.140625;;;21.059999;25.678711
77517;BME280;66628;53.946;27.634;2023-02-15T02:54:16;100176.203125;;;21.070000;25.657227
77517;BME280;66628;53.946;27.634;2023-02-15T02:55:23;100176.203125;;;21.070000;25.623047
77517;BME280;66628;53.946;27.634;2023-02-15T02:56:21;100175.500000;;;21.070000;25.679688
77517;BME280;66628;53.946;27.634;2023-02-15T02:57:18;100176.781250;;;21.070000;25.667969
77517;BME280;66628;53.946;27.634;2023-02-15T02:58:20;100176.281250;;;21.070000;25.634766
77517;BME280;66628;53.946;27.634;2023-02-15T02:59:20;100171.085938;;;21.070000;25.679688
77517;BME280;66628;53.946;27.634;2023-02-15T03:00:16;100173.359375;;;21.070000;25.657227
77517;BME280;66628;53.946;27.634;2023-02-15T03:01:39;100172.421875;;;21.080000;25.589844
77517;BME280;66628;53.946;27.634;2023-02-15T03:02:21;100171.250000;;;21.080000;25.781250
77517;BME280;66628;53.946;27.634;2023-02-15T03:03:24;100166.281250;;;21.090000;25.748047
77517;BME280;66628;53.946;27.634;2023-02-15T03:04:21;100168.968750;;;21.100000;25.815430
77517;BME280;66628;53.946;27.634;2023-02-15T03:05:18;100170.835938;;;21.100000;25.816406
77517;BME280;66628;53.946;27.634;2023-02-15T03:06:20;100176.335938;;;21.120001;25.760742
77517;BME280;66628;53.946;27.634;2023-02-15T03:07:17;100179.656250;;;21.120001;25.772461
77517;BME280;66628;53.946;27.634;2023-02-15T03:08:16;100176.265625;;;21.120001;25.794922
77517;BME280;66628;53.946;27.634;2023-02-15T03:09:18;100172.812500;;;21.129999;25.772461
77517;BME280;66628;53.946;27.634;2023-02-15T03:10:16;100172.359375;;;21.139999;25.908203
77517;BME280;66628;53.946;27.634;2023-02-15T03:11:16;100171.812500;;;21.129999;25.986328
77517;BME280;66628;53.946;27.634;2023-02-15T03:12:20;100173.593750;;;21.139999;26.065430
77517;BME280;66628;53.946;27.634;2023-02-15T03:13:16;100174.875000;;;21.139999;26.132812
77517;BME280;66628;53.946;27.634;2023-02-15T03:14:16;100169.609375;;;21.150000;26.077148
77517;BME280;66628;53.946;27.634;2023-02-15T03:15:19;100170.062500;;;21.150000;26.099609
77517;BME280;66628;53.946;27.634;2023-02-15T03:16:16;100174.914062;;;21.150000;26.122070
77517;BME280;66628;53.946;27.634;2023-02-15T03:17:16;100178.828125;;;21.150000;26.291016
77517;BME280;66628;53.946;27.634;2023-02-15T03:18:20;100181.562500;;;21.160000;26.133789
77517;BME280;66628;53.946;27.634;2023-02-15T03:19:21;100177.296875;;;21.160000;26.235352
77517;BME280;66628;53.946;27.634;2023-02-15T03:21:16;100179.656250;;;21.160000;26.167969
77517;BME280;66628;53.946;27.634;2023-02-15T03:23:17;100175.617188;;;21.170000;26.291992
77517;BME280;66628;53.946;27.634;2023-02-15T03:24:17;100174.796875;;;21.170000;26.224609
77517;BME280;66628;53.946;27.634;2023-02-15T03:25:22;100172.937500;;;21.170000;26.269531
77517;BME280;66628;53.946;27.634;2023-02-15T03:26:16;100179.171875;;;21.170000;26.325195
77517;BME280;66628;53.946;27.634;2023-02-15T03:27:20;100182.171875;;;21.180000;26.349609
77517;BME280;66628;53.946;27.634;2023-02-15T03:28:18;100182.750000;;;21.180000;26.315430
77517;BME280;66628;53.946;27.634;2023-02-15T03:29:16;100178.546875;;;21.180000;26.349609
77517;BME280;66628;53.946;27.634;2023-02-15T03:30:17;100178.601562;;;21.190001;26.327148
77517;BME280;66628;53.946;27.634;2023-02-15T03:31:16;100179.062500;;;21.190001;26.327148
77517;BME280;66628;53.946;27.634;2023-02-15T03:32:16;100182.218750;;;21.190001;26.349609
77517;BME280;66628;53.946;27.634;2023-02-15T03:33:16;100175.085938;;;21.190001;26.416992
77517;BME280;66628;53.946;27.634;2023-02-15T03:34:16;100181.382812;;;21.200001;26.350586
77517;BME280;66628;53.946;27.634;2023-02-15T03:35:16;100174.375000;;;21.200001;26.373047
77517;BME280;66628;53.946;27.634;2023-02-15T03:36:23;100181.929688;;;21.200001;26.406250
77517;BME280;66628;53.946;27.634;2023-02-15T03:37:25;100179.531250;;;21.209999;26.283203
77517;BME280;66628;53.946;27.634;2023-02-15T03:38:17;100182.625000;;;21.209999;26.417969
77517;BME280;66628;53.946;27.634;2023-02-15T03:40:19;100184.609375;;;21.209999;26.485352
77517;BME280;66628;53.946;27.634;2023-02-15T03:41:16;100185.062500;;;21.219999;26.530273
77517;BME280;66628;53.946;27.634;2023-02-15T03:42:17;100184.937500;;;21.219999;26.407227
77517;BME280;66628;53.946;27.634;2023-02-15T03:43:17;100187.250000;;;21.219999;26.486328
77517;BME280;66628;53.946;27.634;2023-02-15T03:44:21;100187.218750;;;21.219999;26.498047
77517;BME280;66628;53.946;27.634;2023-02-15T03:45:17;100182.867188;;;21.219999;26.508789
77517;BME280;66628;53.946;27.634;2023-02-15T03:46:21;100183.312500;;;21.219999;26.530273
77517;BME280;66628;53.946;27.634;2023-02-15T03:47:17;100183.921875;;;21.219999;26.508789
77517;BME280;66628;53.946;27.634;2023-02-15T03:48:16;100183.265625;;;21.230000;26.407227
77517;BME280;66628;53.946;27.634;2023-02-15T03:51:18;100186.304688;;;21.230000;26.351562
77517;BME280;66628;53.946;27.634;2023-02-15T03:52:16;100183.796875;;;21.230000;26.294922
77517;BME280;66628;53.946;27.634;2023-02-15T03:53:17;100184.062500;;;21.219999;26.284180
77517;BME280;66628;53.946;27.634;2023-02-15T03:54:24;100185.296875;;;21.219999;26.227539
77517;BME280;66628;53.946;27.634;2023-02-15T03:55:16;100180.468750;;;21.230000;26.216797
77517;BME280;66628;53.946;27.634;2023-02-15T03:56:16;100180.453125;;;21.230000;26.284180
77517;BME280;66628;53.946;27.634;2023-02-15T03:57:20;100177.960938;;;21.219999;26.227539
77517;BME280;66628;53.946;27.634;2023-02-15T03:58:16;100181.328125;;;21.230000;26.318359
77517;BME280;66628;53.946;27.634;2023-02-15T03:59:16;100183.031250;;;21.230000;26.261719
77517;BME280;66628;53.946;27.634;2023-02-15T04:00:22;100187.882812;;;21.230000;26.284180
77517;BME280;66628;53.946;27.634;2023-02-15T04:02:21;100184.125000;;;21.240000;26.285156
77517;BME280;66628;53.946;27.634;2023-02-15T04:04:18;100177.250000;;;21.230000;26.273438
77517;BME280;66628;53.946;27.634;2023-02-15T04:05:16;100180.796875;;;21.240000;26.206055
77517;BME280;66628;53.946;27.634;2023-02-15T04:06:16;100179.867188;;;21.240000;26.261719
77517;BME280;66628;53.946;27.634;2023-02-15T04:07:16;100180.625000;;;21.240000;26.262695
77517;BME280;66628;53.946;27.634;2023-02-15T04:08:16;100177.078125;;;21.250000;26.240234
77517;BME280;66628;53.946;27.634;2023-02-15T04:09:16;100176.820312;;;21.240000;26.330078
77517;BME280;66628;53.946;27.634;2023-02-15T04:10:16;100177.078125;;;21.250000;26.398438
77517;BME280;66628;53.946;27.634;2023-02-15T04:11:16;100170.984375;;;21.260000;26.432617
77517;BME280;66628;53.946;27.634;2023-02-15T04:12:16;100173.031250;;;21.270000;26.455078
77517;BME280;66628;53.946;27.634;2023-02-15T04:13:16;100170.640625;;;21.280001;26.545898
77517;BME280;66628;53.946;27.634;2023-02-15T04:14:16;100171.906250;;;21.290001;26.590820
77517;BME280;66628;53.946;27.634;2023-02-15T04:15:16;100169.984375;;;21.290001;26.692383
77517;BME280;66628;53.946;27.634;2023-02-15T04:16:16;100166.375000;;;21.290001;26.625000
77517;BME280;66628;53.946;27.634;2023-02-15T04:17:16;100159.812500;;;21.290001;26.669922
77517;BME280;66628;53.946;27.634;2023-02-15T04:18:16;100157.359375;;;21.290001;26.714844
77517;BME280;66628;53.946;27.634;2023-02-15T04:19:16;100162.695312;;;21.290001;26.759766
77517;BME280;66628;53.946;27.634;2023-02-15T04:20:16;100168.187500;;;21.290001;26.771484
77517;BME280;66628;53.946;27.634;2023-02-15T04:21:16;100167.187500;;;21.299999;26.760742
77517;BME280;66628;53.946;27.634;2023-02-15T04:22:16;100167.429688;;;21.290001;26.771484
77517;BME280;66628;53.946;27.634;2023-02-15T04:23:19;100163.218750;;;21.290001;26.749023
77517;BME280;66628;53.946;27.634;2023-02-15T04:24:16;100166.070312;;;21.299999;26.884766
77517;BME280;66628;53.946;27.634;2023-02-15T04:25:16;100163.148438;;;21.299999;26.896484
77517;BME280;66628;53.946;27.634;2023-02-15T04:26:16;100164.671875;;;21.299999;26.997070
77517;BME280;66628;53.946;27.634;2023-02-15T04:27:16;100167.875000;;;21.299999;26.952148
77517;BME280;66628;53.946;27.634;2023-02-15T04:28:16;100171.609375;;;21.309999;26.941406
77517;BME280;66628;53.946;27.634;2023-02-15T04:29:16;100173.945312;;;21.309999;26.997070
77517;BME280;66628;53.946;27.634;2023-02-15T04:30:17;100174.320312;;;21.309999;26.918945
77517;BME280;66628;53.946;27.634;2023-02-15T04:31:16;100171.867188;;;21.309999;26.986328
77517;BME280;66628;53.946;27.634;2023-02-15T04:32:16;100172.742188;;;21.309999;27.019531
77517;BME280;66628;53.946;27.634;2023-02-15T04:33:16;100171.570312;;;21.309999;27.053711
77517;BME280;66628;53.946;27.634;2023-02-15T04:34:16;100169.625000;;;21.320000;27.099609
77517;BME280;66628;53.946;27.634;2023-02-15T04:35:16;100170.750000;;;21.320000;27.110352
77517;BME280;66628;53.946;27.634;2023-02-15T04:36:16;100171.921875;;;21.309999;27.098633
77517;BME280;66628;53.946;27.634;2023-02-15T04:37:16;100171.734375;;;21.320000;27.122070
77517;BME280;66628;53.946;27.634;2023-02-15T04:38:16;100174.312500;;;21.320000;27.143555
77517;BME280;66628;53.946;27.634;2023-02-15T04:39:16;100178.976562;;;21.320000;27.065430
77517;BME280;66628;53.946;27.634;2023-02-15T04:40:16;100175.062500;;;21.320000;27.054688
77517;BME280;66628;53.946;27.634;2023-02-15T04:41:16;100172.851562;;;21.320000;27.065430
77517;BME280;66628;53.946;27.634;2023-02-15T04:42:16;100177.281250;;;21.320000;27.222656
77517;BME280;66628;53.946;27.634;2023-02-15T04:43:18;100174.656250;;;21.320000;27.189453
77517;BME280;66628;53.946;27.634;2023-02-15T04:44:16;100177.937500;;;21.320000;27.222656
77517;BME280;66628;53.946;27.634;2023-02-15T04:45:16;100179.625000;;;21.320000;26.987305
77517;BME280;66628;53.946;27.634;2023-02-15T04:46:16;100180.500000;;;21.320000;27.009766
77517;BME280;66628;53.946;27.634;2023-02-15T04:47:16;100181.078125;;;21.320000;26.942383
77517;BME280;66628;53.946;27.634;2023-02-15T04:48:16;100175.359375;;;21.320000;26.896484
77517;BME280;66628;53.946;27.634;2023-02-15T04:49:16;100176.992188;;;21.320000;26.908203
77517;BME280;66628;53.946;27.634;2023-02-15T04:50:16;100178.453125;;;21.320000;26.919922
77517;BME280;66628;53.946;27.634;2023-02-15T04:51:16;100179.203125;;;21.330000;26.897461
77517;BME280;66628;53.946;27.634;2023-02-15T04:52:16;100176.281250;;;21.330000;26.930664
77517;BME280;66628;53.946;27.634;2023-02-15T04:53:16;100178.343750;;;21.340000;26.897461
77517;BME280;66628;53.946;27.634;2023-02-15T04:54:16;100177.093750;;;21.350000;26.955078
77517;BME280;66628;53.946;27.634;2023-02-15T04:55:16;100168.570312;;;21.350000;27.078125
77517;BME280;66628;53.946;27.634;2023-02-15T04:56:16;100169.687500;;;21.360001;27.168945
77517;BME280;66628;53.946;27.634;2023-02-15T04:57:16;100166.187500;;;21.360001;27.213867
77517;BME280;66628;53.946;27.634;2023-02-15T04:58:16;100164.945312;;;21.370001;27.191406
77517;BME280;66628;53.946;27.634;2023-02-15T04:59:16;100164.000000;;;21.370001;27.237305
77517;BME280;66628;53.946;27.634;2023-02-15T05:00:16;100163.179688;;;21.370001;27.249023